Time;durP1;ratioP1;P1;durP2;ratioP2;P2;SDS_P1;SDS_P2;PMS_P1;PMS_P2;Temp;Humidity;BMP_temperature;BMP_pressure;BME280_temperature;BME280_humidity;BME280_pressure;Samples;Min_cycle;Max_cycle;Signal;HPM_P1;HPM_P2
2023/04/28 00:00:03;;;;;;;7.65;3.40;;;;;;;9.46;73.31;99648.22;4927349;28;20094;-89
2023/04/28 00:02:28;;;;;;;5.13;3.08;;;;;;;9.45;71.90;99637.72;4928153;28;20066;-89
2023/04/28 00:04:54;;;;;;;6.43;2.80;;;;;;;9.46;69.05;99645.53;4927061;28;20485;-89
2023/04/28 00:07:20;;;;;;;6.88;2.58;;;;;;;9.37;67.18;99638.97;4926866;28;20462;-89
2023/04/28 00:09:45;;;;;;;3.90;2.63;;;;;;;9.45;69.20;99640.41;4927224;28;20030;-89
2023/04/28 00:12:11;;;;;;;5.32;2.80;;;;;;;9.59;68.45;99646.97;4943346;28;20027;-89
2023/04/28 00:14:36;;;;;;;6.47;2.72;;;;;;;9.45;69.50;99645.78;4926654;28;20038;-89
2023/04/28 00:17:02;;;;;;;5.25;2.20;;;;;;;9.40;70.59;99643.84;4956645;28;20093;-89
2023/04/28 00:19:27;;;;;;;6.70;2.72;;;;;;;9.38;70.08;99664.78;4931255;28;20031;-89
2023/04/28 00:21:53;;;;;;;6.20;3.00;;;;;;;9.25;71.72;99663.28;4946990;28;20038;-89
2023/04/28 00:24:19;;;;;;;4.45;2.67;;;;;;;9.27;70.31;99671.91;4930840;28;20066;-89
2023/04/28 00:26:45;;;;;;;3.40;2.30;;;;;;;9.24;69.49;99663.56;4946114;28;20073;-89
2023/04/28 00:29:10;;;;;;;5.18;3.30;;;;;;;9.19;70.90;99676.94;4930186;28;20039;-89
2023/04/28 00:31:35;;;;;;;7.25;5.53;;;;;;;9.19;73.12;99682.31;4929884;28;20046;-90
2023/04/28 00:34:01;;;;;;;9.40;7.00;;;;;;;9.14;75.74;99671.50;4946491;28;20109;-89
2023/04/28 00:36:30;;;;;;;8.63;6.80;;;;;;;9.28;76.27;99686.19;4929910;28;20044;-89
2023/04/28 00:38:56;;;;;;;14.52;7.15;;;;;;;9.24;76.77;99685.06;4931444;28;20037;-89
2023/04/28 00:41:22;;;;;;;8.65;6.22;;;;;;;9.23;77.03;99691.47;4930911;28;20062;-89
2023/04/28 00:43:47;;;;;;;9.13;6.53;;;;;;;9.26;77.11;99701.75;4930564;28;20054;-89
2023/04/28 00:46:21;;;;;;;10.93;5.45;;;;;;;9.22;76.51;99695.25;4930613;28;20042;-89
2023/04/28 00:48:47;;;;;;;7.68;5.57;;;;;;;9.06;76.65;99689.69;4930643;28;20034;-89
2023/04/28 00:51:12;;;;;;;9.95;5.57;;;;;;;9.12;76.94;99695.13;4930402;28;20035;-89
2023/04/28 00:53:37;;;;;;;8.75;5.07;;;;;;;9.05;76.78;99693.44;4929831;28;20035;-89
2023/04/28 00:56:05;;;;;;;6.03;5.03;;;;;;;9.10;76.79;99700.75;4946369;28;20034;-89
2023/04/28 00:58:30;;;;;;;10.20;4.82;;;;;;;9.10;77.10;99692.69;4946069;28;20046;-89
2023/04/28 01:01:05;;;;;;;8.38;4.30;;;;;;;9.20;76.44;99710.81;4947057;28;20042;-89
2023/04/28 01:03:33;;;;;;;5.85;4.00;;;;;;;9.12;75.96;99695.13;4943379;28;20042;-89
2023/04/28 01:05:58;;;;;;;8.07;4.22;;;;;;;9.16;77.48;99717.75;4930134;28;20126;-89
2023/04/28 01:08:27;;;;;;;6.13;4.28;;;;;;;9.07;77.09;99704.75;4945683;28;20039;-89
2023/04/28 01:10:52;;;;;;;7.22;4.35;;;;;;;9.05;76.27;99712.25;4928253;28;20488;-89
2023/04/28 01:13:18;;;;;;;6.43;3.83;;;;;;;9.11;74.47;99705.06;4929887;28;20026;-88
2023/04/28 01:15:43;;;;;;;5.00;3.15;;;;;;;9.17;71.58;99713.97;4929160;28;20042;-89
2023/04/28 01:18:09;;;;;;;3.97;3.30;;;;;;;9.16;70.34;99701.63;4929195;28;20039;-88
2023/04/28 01:20:34;;;;;;;4.07;3.08;;;;;;;9.24;71.52;99717.31;4929985;28;20061;-89
2023/04/28 01:23:00;;;;;;;3.83;2.88;;;;;;;9.10;69.75;99706.91;4929924;28;20081;-90
2023/04/28 01:25:26;;;;;;;4.25;2.55;;;;;;;9.13;68.91;99713.69;4929382;28;20050;-88
2023/04/28 01:27:51;;;;;;;5.22;3.08;;;;;;;9.16;67.81;99721.22;4928821;28;20130;-89
2023/04/28 01:30:17;;;;;;;3.65;2.67;;;;;;;9.09;68.28;99715.25;4945059;28;20046;-89
2023/04/28 01:32:42;;;;;;;5.35;3.03;;;;;;;9.11;67.64;99707.75;4928523;28;20035;-89
2023/04/28 01:35:08;;;;;;;4.95;2.75;;;;;;;9.06;67.17;99711.16;4945071;28;20560;-88
2023/04/28 01:37:33;;;;;;;3.08;2.60;;;;;;;9.12;66.29;99705.88;4929939;28;20038;-89
2023/04/28 01:39:59;;;;;;;3.67;2.60;;;;;;;9.15;66.20;99710.72;4929739;28;20051;-89
2023/04/28 01:42:24;;;;;;;5.78;2.40;;;;;;;9.10;65.88;99708.81;4945750;28;20089;-89
2023/04/28 01:44:50;;;;;;;3.22;2.58;;;;;;;9.23;64.24;99721.03;4930231;28;20046;-89
2023/04/28 01:47:15;;;;;;;4.70;2.50;;;;;;;9.16;63.11;99718.53;4929211;28;20505;-89
2023/04/28 01:49:41;;;;;;;6.50;2.13;;;;;;;9.05;62.74;99714.94;4945389;28;20501;-89
2023/04/28 01:52:06;;;;;;;4.32;2.45;;;;;;;9.15;62.68;99710.72;4928381;28;20034;-89
2023/04/28 01:54:31;;;;;;;3.97;2.38;;;;;;;9.15;60.60;99718.78;4929399;28;20046;-89
2023/04/28 01:56:57;;;;;;;6.63;2.55;;;;;;;9.22;59.72;99732.84;4930290;28;20039;-89
2023/04/28 01:59:22;;;;;;;3.58;2.78;;;;;;;9.02;61.29;99726.16;4928844;28;20045;-89
2023/04/28 02:01:48;;;;;;;3.20;2.25;;;;;;;9.07;59.68;99726.25;4928747;28;20394;-89
2023/04/28 02:04:13;;;;;;;3.15;2.50;;;;;;;9.06;60.94;99731.84;4944254;28;20038;-89
2023/04/28 02:06:39;;;;;;;2.50;2.10;;;;;;;9.07;60.90;99736.97;4929155;28;20042;-89
2023/04/28 02:09:04;;;;;;;7.50;2.55;;;;;;;9.01;61.53;99729.91;4928657;28;20031;-89
2023/04/28 02:11:29;;;;;;;6.00;3.00;;;;;;;8.96;61.98;99732.53;4929580;28;20042;-89
2023/04/28 02:13:55;;;;;;;5.18;2.50;;;;;;;9.10;62.29;99746.41;4928669;28;20031;-88
2023/04/28 02:16:20;;;;;;;2.78;2.33;;;;;;;9.06;63.27;99739.91;4931345;28;20567;-88
2023/04/28 02:18:46;;;;;;;3.53;2.10;;;;;;;8.94;62.52;99736.53;4928210;28;20050;-88
2023/04/28 02:21:12;;;;;;;5.53;2.50;;;;;;;8.93;62.36;99738.41;4928503;28;20042;-88
2023/04/28 02:23:38;;;;;;;3.22;2.30;;;;;;;8.97;62.67;99747.59;4928578;28;20043;-88
2023/04/28 02:26:03;;;;;;;3.20;2.20;;;;;;;8.98;61.83;99754.56;4929119;28;20059;-89
2023/04/28 02:28:29;;;;;;;4.78;2.60;;;;;;;8.88;61.79;99732.94;4943502;28;20038;-89
2023/04/28 02:31:08;;;;;;;5.47;2.78;;;;;;;8.89;60.95;99750.69;4928396;28;20030;-89
2023/04/28 02:33:34;;;;;;;3.55;2.40;;;;;;;8.90;60.97;99749.63;4928380;28;20062;-88
2023/04/28 02:36:00;;;;;;;4.60;3.00;;;;;;;8.93;61.53;99757.19;4928678;28;20027;-88
2023/04/28 02:38:26;;;;;;;4.75;3.13;;;;;;;8.89;61.46;99753.38;4927205;28;20497;-88
2023/04/28 02:40:58;;;;;;;5.90;2.80;;;;;;;9.05;61.55;99757.09;4928599;28;20038;-88
2023/04/28 02:43:25;;;;;;;5.90;2.60;;;;;;;9.03;61.85;99764.59;4944238;28;20034;-88
2023/04/28 02:45:50;;;;;;;3.53;2.50;;;;;;;8.99;62.02;99750.03;4928582;28;20129;-88
2023/04/28 02:48:16;;;;;;;3.38;2.40;;;;;;;8.97;60.88;99757.53;4929291;28;20061;-88
2023/04/28 02:50:42;;;;;;;4.93;2.58;;;;;;;8.88;62.67;99751.75;4912653;28;20061;-88
2023/04/28 02:53:08;;;;;;;4.03;2.55;;;;;;;8.87;62.43;99758.19;4927996;28;20486;-88
2023/04/28 02:55:33;;;;;;;7.20;2.78;;;;;;;8.85;63.08;99779.91;4927875;28;20030;-88
2023/04/28 02:57:58;;;;;;;4.97;2.40;;;;;;;8.81;61.77;99765.34;4943778;28;20102;-87
2023/04/28 03:00:24;;;;;;;3.15;2.53;;;;;;;8.92;61.51;99781.63;4927959;28;20035;-88
2023/04/28 03:02:49;;;;;;;3.95;2.65;;;;;;;8.89;61.80;99782.94;4944036;28;20101;-88
2023/04/28 03:05:15;;;;;;;4.88;2.63;;;;;;;8.80;60.93;99779.03;4927922;28;20038;-88
2023/04/28 03:07:40;;;;;;;4.13;2.65;;;;;;;8.88;60.67;99786.66;4927359;28;20066;-88
2023/04/28 03:10:06;;;;;;;3.78;2.58;;;;;;;8.83;61.00;99787.41;4927575;28;20047;-88
2023/04/28 03:12:32;;;;;;;5.65;2.30;;;;;;;8.77;61.29;99774.97;4927977;28;20035;-88
2023/04/28 03:14:57;;;;;;;5.38;2.90;;;;;;;8.70;61.00;99783.19;4944156;28;20043;-88
2023/04/28 03:17:23;;;;;;;4.50;2.72;;;;;;;8.83;61.77;99786.59;4927688;28;20038;-87
2023/04/28 03:19:48;;;;;;;3.40;2.38;;;;;;;8.97;60.09;99798.63;4959390;28;20038;-87
2023/04/28 03:22:14;;;;;;;3.42;2.20;;;;;;;8.94;59.27;99790.22;4927441;28;20038;-87
2023/04/28 03:24:39;;;;;;;5.80;2.90;;;;;;;8.90;60.53;99780.00;4959503;28;20053;-87
2023/04/28 03:27:05;;;;;;;7.47;3.05;;;;;;;9.03;60.28;99799.50;4943775;28;20051;-88
2023/04/28 03:29:30;;;;;;;4.82;3.13;;;;;;;9.05;65.20;99824.25;4943408;28;20041;-87
2023/04/28 03:31:56;;;;;;;4.82;3.17;;;;;;;8.95;69.60;99810.69;4927237;28;20056;-88
2023/04/28 03:34:21;;;;;;;5.65;3.40;;;;;;;8.83;70.07;99811.56;4959845;28;20513;-89
2023/04/28 03:36:47;;;;;;;11.13;4.20;;;;;;;8.74;71.50;99815.75;4944094;28;20460;-90
2023/04/28 03:39:12;;;;;;;10.20;4.15;;;;;;;8.81;72.54;99827.13;4928350;28;20035;-88
2023/04/28 03:41:41;;;;;;;7.35;4.35;;;;;;;8.77;72.72;99825.16;4959984;28;20027;-89
2023/04/28 03:44:07;;;;;;;5.25;3.88;;;;;;;8.69;73.14;99835.28;4943858;28;20053;-87
2023/04/28 03:46:33;;;;;;;8.80;3.58;;;;;;;8.69;73.42;99839.81;4943258;28;20035;-87
2023/04/28 03:49:01;;;;;;;5.93;3.83;;;;;;;8.60;73.00;99836.72;4959173;28;20038;-87
2023/04/28 03:51:27;;;;;;;4.80;3.92;;;;;;;8.61;73.05;99833.00;4959364;28;20051;-88
2023/04/28 03:53:53;;;;;;;9.43;4.55;;;;;;;8.74;73.04;99857.88;4927534;28;20041;-88
2023/04/28 03:56:19;;;;;;;6.30;3.80;;;;;;;8.56;73.87;99846.31;4927988;28;20039;-88
2023/04/28 03:58:45;;;;;;;5.38;3.80;;;;;;;8.66;73.71;99849.16;4958935;28;20038;-88
2023/04/28 04:01:10;;;;;;;14.10;4.20;;;;;;;8.75;72.47;99849.56;4927730;28;20485;-88
2023/04/28 04:03:35;;;;;;;4.50;3.38;;;;;;;8.82;71.18;99860.13;4942765;28;20099;-88
2023/04/28 04:06:01;;;;;;;6.15;3.85;;;;;;;8.82;72.01;99852.09;4928280;28;20042;-89
2023/04/28 04:08:26;;;;;;;6.95;3.28;;;;;;;8.93;68.36;99861.94;4943759;28;20051;-87
2023/04/28 04:10:53;;;;;;;3.67;3.03;;;;;;;8.97;68.76;99857.72;4941827;28;20478;-88
2023/04/28 04:13:19;;;;;;;7.05;3.40;;;;;;;8.96;68.49;99855.25;4928730;28;20030;-88
2023/04/28 04:15:45;;;;;;;4.47;3.00;;;;;;;8.94;67.66;99858.19;4924463;28;20062;-89
2023/04/28 04:18:11;;;;;;;6.35;3.60;;;;;;;8.93;69.05;99859.25;4929972;28;20058;-88
2023/04/28 04:20:36;;;;;;;4.22;3.63;;;;;;;9.02;70.56;99857.75;4926838;28;20042;-87
2023/04/28 04:23:02;;;;;;;6.60;4.28;;;;;;;8.89;72.00;99853.56;4927702;28;20042;-87
2023/04/28 04:25:28;;;;;;;6.35;4.07;;;;;;;8.92;71.77;99868.34;4928272;28;20106;-89
2023/04/28 04:27:53;;;;;;;8.07;4.32;;;;;;;8.77;72.34;99863.56;4942610;28;20497;-88
2023/04/28 04:30:19;;;;;;;5.50;3.70;;;;;;;8.74;73.17;99864.06;4926353;28;20406;-88
2023/04/28 04:32:44;;;;;;;7.68;4.90;;;;;;;8.67;73.24;99877.66;4926881;28;20034;-87
2023/04/28 04:35:10;;;;;;;8.45;5.25;;;;;;;8.76;74.05;99871.84;4927719;28;20061;-88
2023/04/28 04:37:35;;;;;;;10.43;5.20;;;;;;;8.83;73.35;99876.00;4941874;28;20038;-88
2023/04/28 04:40:02;;;;;;;10.88;5.65;;;;;;;8.73;73.81;99862.41;4958523;28;20096;-88
2023/04/28 04:42:27;;;;;;;5.90;4.20;;;;;;;8.74;67.19;99868.63;4927660;28;20125;-88
2023/04/28 04:44:52;;;;;;;10.73;3.97;;;;;;;8.87;67.23;99874.47;4931258;28;20034;-89
2023/04/28 04:47:18;;;;;;;10.55;3.92;;;;;;;9.03;65.71;99878.22;4943616;28;20462;-88
2023/04/28 04:49:44;;;;;;;5.10;3.15;;;;;;;9.08;62.66;99872.09;4939901;28;20043;-89
2023/04/28 04:52:09;;;;;;;6.75;3.80;;;;;;;9.17;62.75;99876.00;4927882;28;20031;-90
2023/04/28 04:54:38;;;;;;;6.72;4.03;;;;;;;9.18;61.67;99876.81;4946379;28;20035;-89
2023/04/28 04:57:03;;;;;;;12.15;3.92;;;;;;;8.99;61.48;99863.66;4942110;28;20070;-89
2023/04/28 04:59:29;;;;;;;5.60;3.15;;;;;;;9.22;61.39;99884.13;4926251;28;20103;-89
2023/04/28 05:01:54;;;;;;;11.10;4.00;;;;;;;9.17;61.26;99894.81;4943619;28;20050;-89
2023/04/28 05:04:20;;;;;;;8.07;3.72;;;;;;;9.30;60.55;99905.22;4930033;28;20042;-93
2023/04/28 05:06:45;;;;;;;9.20;3.10;;;;;;;9.34;60.44;99892.09;4933285;28;20035;-93
2023/04/28 05:09:25;;;;;;;6.30;3.17;;;;;;;9.40;59.70;99901.84;4963404;28;20046;-94
2023/04/28 05:11:51;;;;;;;7.32;3.42;;;;;;;9.28;59.08;99879.66;4932478;28;20031;-90
2023/04/28 05:14:16;;;;;;;12.73;5.50;;;;;;;9.41;60.56;99876.59;4931684;28;20049;-90
2023/04/28 05:16:42;;;;;;;7.68;3.92;;;;;;;9.65;59.82;99892.47;4947970;28;20045;-89
2023/04/28 05:19:10;;;;;;;4.90;3.50;;;;;;;9.55;60.22;99876.25;4962233;28;20046;-92
2023/04/28 05:21:36;;;;;;;10.73;4.93;;;;;;;9.73;59.18;99893.94;4932429;28;20105;-91
2023/04/28 05:24:01;;;;;;;4.43;3.38;;;;;;;9.86;59.97;99894.38;4946718;28;20043;-90
2023/04/28 05:26:26;;;;;;;7.47;3.78;;;;;;;9.80;58.72;99886.50;4940459;29;20063;-90
2023/04/28 05:28:52;;;;;;;7.68;4.10;;;;;;;9.95;58.91;99893.94;4924366;29;20046;-91
2023/04/28 05:31:27;;;;;;;8.27;4.15;;;;;;;10.16;57.67;99919.19;4925543;29;20039;-90
2023/04/28 05:33:52;;;;;;;8.20;3.50;;;;;;;10.12;57.74;99908.13;4927215;29;20036;-89
2023/04/28 05:36:18;;;;;;;10.40;4.80;;;;;;;10.25;58.59;99915.81;4925647;29;20415;-90
2023/04/28 05:38:50;;;;;;;5.55;3.40;;;;;;;10.40;57.03;99920.56;4928122;29;20067;-88
2023/04/28 05:41:22;;;;;;;6.50;3.42;;;;;;;10.39;57.79;99920.81;4922520;29;20039;-90
2023/04/28 05:43:49;;;;;;;10.65;3.72;;;;;;;10.27;57.64;99894.84;4924377;29;20557;-89
2023/04/28 05:46:16;;;;;;;4.05;3.15;;;;;;;10.42;55.50;99913.06;4927754;29;20418;-91
2023/04/28 05:48:41;;;;;;;10.32;4.15;;;;;;;10.45;54.63;99892.88;4929042;29;20120;-92
2023/04/28 05:51:09;;;;;;;8.13;3.53;;;;;;;10.84;53.56;99911.53;4926873;29;20039;-91
2023/04/28 05:53:58;;;;;;;8.48;3.50;;;;;;;10.87;53.63;99902.94;4924464;29;20074;-95
2023/04/28 05:56:29;;;;;;;5.85;3.30;;;;;;;11.04;53.27;99910.88;4943526;29;20059;-91
2023/04/28 05:58:55;;;;;;;7.93;4.00;;;;;;;11.04;55.52;99913.56;4931013;29;20040;-89
2023/04/28 06:01:34;;;;;;;8.93;4.25;;;;;;;10.93;55.32;99915.38;4925191;29;20050;-93
2023/04/28 06:04:04;;;;;;;8.45;3.42;;;;;;;10.74;52.79;99914.16;4927008;29;20040;-91
2023/04/28 06:06:31;;;;;;;8.85;3.80;;;;;;;11.23;52.27;99930.19;4925524;29;20100;-89
2023/04/28 06:15:37;;;;;;;5.72;4.00;;;;;;;11.26;49.10;99918.84;4944879;29;20084;-91
2023/04/28 06:18:05;;;;;;;5.00;2.88;;;;;;;11.39;48.96;99923.78;4926882;29;20040;-90
2023/04/28 06:20:30;;;;;;;5.47;2.50;;;;;;;11.44;49.14;99944.59;4926301;29;20036;-92
2023/04/28 06:22:56;;;;;;;6.28;3.10;;;;;;;11.39;48.57;99913.00;4921752;29;20300;-90
2023/04/28 06:25:21;;;;;;;5.55;2.58;;;;;;;11.45;46.00;99905.75;4927865;29;20048;-92
2023/04/28 06:27:50;;;;;;;13.32;3.28;;;;;;;11.88;44.70;99941.59;4932179;29;20051;-91
2023/04/28 06:30:20;;;;;;;6.38;2.47;;;;;;;12.07;45.05;99950.88;4931524;29;20035;-94
2023/04/28 06:32:46;;;;;;;4.82;2.30;;;;;;;12.01;44.33;99922.25;4941266;29;20036;-92
2023/04/28 06:39:15;;;;;;;5.72;2.17;;;;;;;12.12;43.76;99945.50;4929334;29;20103;-92
2023/04/28 06:41:41;;;;;;;9.25;3.13;;;;;;;12.10;44.71;99926.06;4938047;29;20040;-91
2023/04/28 06:44:07;;;;;;;20.92;11.63;;;;;;;12.12;45.09;99920.41;4905799;29;20044;-94
2023/04/28 06:46:32;;;;;;;9.95;3.15;;;;;;;12.20;42.43;99927.16;4940475;29;20067;-92
2023/04/28 06:48:58;;;;;;;6.00;2.10;;;;;;;12.20;41.63;99914.50;4916301;29;20116;-95
2023/04/28 06:51:24;;;;;;;6.05;2.40;;;;;;;12.20;41.83;99916.38;4931656;29;20044;-94
2023/04/28 06:53:52;;;;;;;8.10;2.50;;;;;;;12.09;42.35;99907.44;4917340;29;20040;-95
2023/04/28 06:59:27;;;;;;;6.10;3.72;;;;;;;11.91;42.07;99917.63;4938297;29;20086;-95
2023/04/28 07:04:55;;;;;;;11.48;4.25;;;;;;;11.61;42.28;99939.03;4970284;28;20063;-96
2023/04/28 07:08:01;;;;;;;5.93;4.25;;;;;;;11.58;43.85;99912.56;4912626;29;20093;-95
2023/04/28 07:10:34;;;;;;;6.68;2.30;;;;;;;11.82;42.33;99929.16;4886860;29;20041;-94
2023/04/28 07:13:03;;;;;;;5.75;2.40;;;;;;;12.01;42.72;99934.94;4866005;29;20053;-91
2023/04/28 07:15:33;;;;;;;8.85;7.05;;;;;;;11.83;44.41;99937.00;4854914;29;20045;-91
2023/04/28 07:18:02;;;;;;;9.32;3.85;;;;;;;12.05;42.85;99936.84;4866312;29;20058;-92
2023/04/28 07:20:36;;;;;;;6.05;4.10;;;;;;;12.25;41.42;99946.91;4867298;29;20497;-96
2023/04/28 07:23:02;;;;;;;5.55;2.95;;;;;;;12.03;42.67;99898.50;4853210;29;20041;-96
2023/04/28 07:25:28;;;;;;;5.72;2.60;;;;;;;12.13;42.71;99914.72;4853600;29;20068;-94
2023/04/28 07:27:53;;;;;;;3.78;2.30;;;;;;;12.25;40.84;99921.81;4868769;29;20052;-94
2023/04/28 07:30:23;;;;;;;7.15;2.65;;;;;;;12.37;40.74;99908.88;4871223;29;20053;-94
2023/04/28 07:32:55;;;;;;;3.05;1.92;;;;;;;12.69;39.11;99938.34;4856560;29;20037;-95
2023/04/28 07:35:24;;;;;;;8.40;4.38;;;;;;;12.68;39.40;99901.63;4854311;29;20053;-91
2023/04/28 07:37:49;;;;;;;6.82;2.67;;;;;;;12.86;38.47;99910.25;4869785;29;20044;-95
2023/04/28 07:40:15;;;;;;;3.58;2.22;;;;;;;13.10;37.77;99913.25;4855721;29;20480;-94
2023/04/28 07:42:41;;;;;;;3.03;2.50;;;;;;;13.11;35.33;99896.75;4899677;29;20044;-92
2023/04/28 07:45:07;;;;;;;4.03;2.45;;;;;;;13.37;35.76;99920.25;4916250;29;20482;-95
2023/04/28 07:47:35;;;;;;;2.97;2.22;;;;;;;13.09;36.42;99892.69;4931189;29;20035;-95
2023/04/28 07:50:07;;;;;;;5.72;2.92;;;;;;;12.94;37.13;99894.31;4930216;29;20050;-95
2023/04/28 07:52:32;;;;;;;;;;;;;;;13.29;38.04;99922.44;4931623;29;20039;-95
2023/04/28 07:54:58;;;;;;;4.32;2.05;;;;;;;13.39;36.17;99891.84;4946152;29;19917;-93
2023/04/28 07:57:24;;;;;;;15.65;3.60;;;;;;;13.50;37.82;99914.28;4932779;29;20035;-96
2023/04/28 07:59:57;;;;;;;5.75;3.28;;;;;;;13.62;36.14;99919.41;4933191;29;20046;-96
2023/04/28 08:02:24;;;;;;;4.43;2.20;;;;;;;13.68;35.64;99910.19;4947787;29;20102;-92
2023/04/28 08:04:50;;;;;;;7.57;2.85;;;;;;;13.78;35.73;99917.44;4933312;29;20031;-93
2023/04/28 08:07:18;;;;;;;7.35;2.50;;;;;;;13.71;36.16;99909.63;4939035;29;20031;-91
2023/04/28 08:09:47;;;;;;;8.02;2.90;;;;;;;13.48;36.47;99886.69;4933086;29;20039;-93
2023/04/28 08:12:18;;;;;;;7.65;3.22;;;;;;;13.46;37.54;99888.84;4932148;29;20038;-94
2023/04/28 08:14:43;;;;;;;7.17;2.60;;;;;;;13.58;37.25;99912.91;4929841;29;20050;-92
2023/04/28 08:17:09;;;;;;;5.80;2.35;;;;;;;13.54;36.41;99891.00;4930556;29;20283;-95
2023/04/28 08:19:37;;;;;;;10.43;3.50;;;;;;;13.54;35.84;99885.59;4929075;29;20469;-94
2023/04/28 08:22:05;;;;;;;6.18;3.25;;;;;;;13.57;35.26;99903.97;4929370;29;20043;-91
2023/04/28 08:24:33;;;;;;;4.55;2.60;;;;;;;13.50;34.72;99900.75;4935713;29;20050;-93
2023/04/28 08:27:04;;;;;;;4.25;2.50;;;;;;;13.10;35.35;99859.97;4950416;29;20051;-92
2023/04/28 08:29:30;;;;;;;5.80;2.35;;;;;;;13.38;34.92;99897.53;4922537;29;20142;-89
2023/04/28 08:31:56;;;;;;;5.35;2.42;;;;;;;13.29;35.05;99867.53;4927027;29;20050;-95
2023/04/28 08:34:28;;;;;;;6.65;3.30;;;;;;;13.41;37.23;99889.69;4932205;29;20035;-96
2023/04/28 08:37:10;;;;;;;4.75;2.42;;;;;;;13.75;35.24;99903.38;4931483;29;20149;-96
2023/04/28 08:39:47;;;;;;;4.00;2.50;;;;;;;13.62;36.07;99876.09;4949779;29;20039;-94
2023/04/28 08:42:58;;;;;;;4.20;2.42;;;;;;;13.85;35.25;99897.09;4934256;29;20046;-92
2023/04/28 08:45:30;;;;;;;8.13;2.30;;;;;;;13.87;34.69;99878.69;4947299;29;20043;-91
2023/04/28 08:47:56;;;;;;;;;;;;;;;14.22;33.77;99895.06;4935028;29;20103;-92
2023/04/28 08:50:33;;;;;;;2.95;2.10;;;;;;;14.19;33.32;99871.22;4947475;29;19953;-89
2023/04/28 08:53:02;;;;;;;5.28;2.63;;;;;;;14.29;32.08;99863.03;4936629;29;20039;-87
2023/04/28 08:55:36;;;;;;;5.68;2.42;;;;;;;14.35;32.87;99880.88;4930644;29;20031;-88
2023/04/28 08:58:02;;;;;;;12.02;6.68;;;;;;;14.38;34.50;99885.75;4930885;29;20070;-89
2023/04/28 09:00:27;;;;;;;5.53;2.40;;;;;;;14.38;33.91;99874.91;4929357;29;20067;-88
2023/04/28 09:02:56;;;;;;;3.28;2.15;;;;;;;14.21;34.54;99861.72;4932496;29;20040;-87
2023/04/28 09:05:24;;;;;;;3.45;1.80;;;;;;;14.23;34.56;99878.50;4929684;29;20050;-87
2023/04/28 09:07:50;;;;;;;5.70;2.65;;;;;;;14.11;34.37;99869.91;4945101;29;20099;-87
2023/04/28 09:10:17;;;;;;;6.85;2.20;;;;;;;13.95;33.94;99867.28;4929102;29;20058;-91
2023/04/28 09:12:48;;;;;;;5.63;4.05;;;;;;;14.13;34.03;99881.25;4946680;29;20131;-92
2023/04/28 09:15:40;;;;;;;2.65;2.03;;;;;;;14.11;34.07;99881.56;4952408;29;20039;-92
2023/04/28 09:18:06;;;;;;;5.70;3.40;;;;;;;13.96;35.89;99878.91;4948718;29;20047;-92
2023/04/28 09:20:33;;;;;;;7.47;3.40;;;;;;;14.07;35.62;99868.84;4930939;29;20062;-93
2023/04/28 09:23:16;;;;;;;3.45;2.30;;;;;;;14.10;34.38;99852.03;4928574;29;20043;-90
2023/04/28 09:26:04;;;;;;;3.28;1.88;;;;;;;14.26;34.25;99869.03;4931398;29;20073;-91
2023/04/28 09:28:30;;;;;;;6.18;1.90;;;;;;;14.14;34.29;99863.94;4948706;29;20039;-91
2023/04/28 09:30:56;;;;;;;5.18;2.90;;;;;;;14.15;34.44;99862.84;4930397;29;20035;-89
2023/04/28 09:33:24;;;;;;;7.32;2.78;;;;;;;14.19;35.30;99841.44;4929706;29;20059;-90
2023/04/28 09:35:50;;;;;;;2.83;1.80;;;;;;;14.14;35.28;99843.06;4911940;29;20150;-87
2023/04/28 09:38:15;;;;;;;4.80;1.85;;;;;;;14.25;35.47;99845.72;4942154;29;20043;-90
2023/04/28 09:40:57;;;;;;;4.53;2.20;;;;;;;14.45;34.87;99859.13;4925301;29;20043;-87
2023/04/28 09:43:25;;;;;;;3.03;1.90;;;;;;;14.53;34.61;99838.75;4942164;29;20116;-91
2023/04/28 09:45:51;;;;;;;4.32;2.60;;;;;;;14.69;34.18;99825.91;4942365;29;20271;-89
2023/04/28 09:48:17;;;;;;;3.17;2.00;;;;;;;14.62;33.97;99852.53;4927314;29;20051;-88
2023/04/28 09:50:43;;;;;;;5.07;2.38;;;;;;;14.71;33.39;99851.66;4927276;29;20103;-91
2023/04/28 09:53:10;;;;;;;3.83;1.90;;;;;;;14.52;34.09;99846.06;4915481;29;20039;-89
2023/04/28 09:55:41;;;;;;;3.13;1.63;;;;;;;14.36;33.33;99822.91;4926652;29;20047;-91
2023/04/28 09:58:06;;;;;;;2.97;2.20;;;;;;;14.18;34.25;99832.50;4932795;29;20658;-91
2023/04/28 10:00:35;;;;;;;3.60;2.50;;;;;;;14.26;34.61;99839.22;4929622;29;20043;-93
2023/04/28 10:03:00;;;;;;;3.20;1.65;;;;;;;14.47;32.89;99820.91;4929641;29;20074;-91
2023/04/28 10:05:26;;;;;;;3.15;1.98;;;;;;;14.37;33.15;99815.56;4919817;29;20039;-91
2023/04/28 10:07:54;;;;;;;3.50;1.80;;;;;;;14.67;32.47;99823.50;4927349;29;20076;-92
2023/04/28 10:10:20;;;;;;;4.03;2.30;;;;;;;14.45;34.42;99804.13;4930597;29;20039;-93
2023/04/28 10:12:54;;;;;;;2.70;1.73;;;;;;;14.86;33.27;99823.59;4930282;29;20043;-93
2023/04/28 10:15:20;;;;;;;3.15;1.88;;;;;;;14.92;32.32;99799.94;4925649;29;20054;-92
2023/04/28 10:17:54;;;;;;;4.53;1.88;;;;;;;14.62;32.93;99788.28;4927663;29;20464;-96
2023/04/28 10:20:51;;;;;;;4.93;2.05;;;;;;;14.89;33.73;99827.63;4930532;29;20038;-91
2023/04/28 10:23:39;;;;;;;3.88;1.95;;;;;;;14.53;33.61;99834.13;4937618;29;20485;-92
2023/04/28 10:26:12;;;;;;;3.95;2.08;;;;;;;14.39;34.00;99824.22;4950663;29;20051;-92
2023/04/28 10:28:48;;;;;;;4.20;2.38;;;;;;;14.43;35.12;99817.16;4936947;29;20094;-93
2023/04/28 10:31:21;;;;;;;4.40;2.40;;;;;;;14.29;34.55;99800.72;4933577;29;20039;-92
2023/04/28 10:33:48;;;;;;;3.20;2.20;;;;;;;14.39;34.71;99816.09;4931723;29;20051;-88
2023/04/28 10:36:53;;;;;;;4.03;2.47;;;;;;;14.32;34.01;99817.22;4929311;29;20429;-88
2023/04/28 10:39:19;;;;;;;5.05;1.98;;;;;;;14.28;32.45;99807.25;4944506;29;20493;-87
2023/04/28 10:41:51;;;;;;;4.28;1.75;;;;;;;14.11;33.55;99767.84;4936848;29;20046;-90
2023/04/28 10:44:29;;;;;;;4.00;2.15;;;;;;;14.66;34.01;99805.59;4932249;29;20037;-94
2023/04/28 10:47:05;;;;;;;6.05;1.83;;;;;;;14.82;32.49;99803.56;4962253;29;20039;-89
2023/04/28 10:50:02;;;;;;;3.65;2.03;;;;;;;14.81;31.79;99801.13;4942823;29;20038;-92
2023/04/28 10:52:37;;;;;;;2.83;1.88;;;;;;;14.58;32.55;99803.50;4941476;29;20038;-89
2023/04/28 10:55:31;;;;;;;3.72;1.92;;;;;;;14.53;31.94;99795.41;4958617;29;20045;-88
2023/04/28 10:58:15;;;;;;;4.03;2.33;;;;;;;14.54;32.72;99797.81;4954947;28;20039;-89
2023/04/28 11:00:47;;;;;;;3.95;2.10;;;;;;;14.64;33.37;99774.47;4939478;29;20053;-89
2023/04/28 11:03:49;;;;;;;3.67;1.98;;;;;;;14.90;33.75;99796.69;4913012;29;20570;-91
2023/04/28 11:06:43;;;;;;;3.63;1.80;;;;;;;14.87;32.98;99800.00;4903209;29;20040;-88
2023/04/28 11:09:16;;;;;;;3.45;1.73;;;;;;;14.83;31.23;99794.31;4907832;29;20131;-93
2023/04/28 11:12:00;;;;;;;2.53;1.83;;;;;;;14.93;32.17;99794.22;4938134;29;20047;-93
2023/04/28 11:14:32;;;;;;;3.30;2.05;;;;;;;14.81;33.00;99782.16;4924515;29;20039;-93
2023/04/28 11:17:01;;;;;;;4.82;2.40;;;;;;;14.86;33.26;99774.78;4922223;29;20032;-94
2023/04/28 11:19:44;;;;;;;3.08;1.98;;;;;;;15.13;33.92;99776.94;4922162;29;20418;-93
2023/04/28 11:22:21;;;;;;;4.28;2.58;;;;;;;15.32;33.63;99781.59;4927179;29;20091;-94
2023/04/28 11:25:01;;;;;;;4.55;2.08;;;;;;;15.12;32.92;99748.19;4911355;29;20042;-91
2023/04/28 11:27:32;;;;;;;4.22;1.73;;;;;;;15.07;34.07;99778.09;4912476;29;20048;-94
2023/04/28 11:30:04;;;;;;;4.88;1.77;;;;;;;14.54;33.80;99756.34;4911623;29;20111;-94
2023/04/28 11:32:39;;;;;;;3.88;2.33;;;;;;;14.84;33.96;99779.69;4902267;29;20029;-92
2023/04/28 11:35:08;;;;;;;2.80;1.75;;;;;;;14.84;34.31;99776.97;4908118;29;20092;-94
2023/04/28 11:37:34;;;;;;;3.65;2.03;;;;;;;14.84;34.17;99768.03;4895760;29;20122;-93
2023/04/28 11:40:09;;;;;;;3.00;1.63;;;;;;;15.07;33.17;99788.94;4923510;29;20103;-89
2023/04/28 11:42:35;;;;;;;3.05;1.75;;;;;;;15.24;33.12;99768.69;4905284;29;20111;-88
2023/04/28 11:45:00;;;;;;;3.20;2.00;;;;;;;15.15;33.58;99753.03;4921257;29;20066;-87
2023/04/28 11:47:31;;;;;;;3.50;1.80;;;;;;;15.55;32.92;99772.63;4890747;29;20024;-90
2023/04/28 11:49:56;;;;;;;4.28;1.83;;;;;;;15.41;32.13;99766.28;4908768;29;20080;-87
2023/04/28 11:52:22;;;;;;;4.05;1.52;;;;;;;15.48;33.20;99788.47;4889400;29;20033;-88
2023/04/28 11:54:57;;;;;;;2.25;1.63;;;;;;;14.80;34.51;99751.53;4910969;29;20123;-88
2023/04/28 11:57:25;;;;;;;4.78;2.20;;;;;;;14.82;35.09;99760.19;4890279;29;20047;-88
2023/04/28 11:59:51;;;;;;;2.60;1.70;;;;;;;14.86;34.69;99753.09;4891009;29;20036;-87